sensor_id;sensor_type;location;lat;lon;timestamp;pressure;altitude;pressure_sealevel;temperature;humidity
10167;BME280;62970;53.130;8.244;2022-12-07T00:00:19;101415.38;;;2.22;74.16
10167;BME280;62970;53.130;8.244;2022-12-07T00:02:49;101414.53;;;2.23;74.27
10167;BME280;62970;53.130;8.244;2022-12-07T00:05:18;101415.38;;;2.22;74.33
10167;BME280;62970;53.130;8.244;2022-12-07T00:07:49;101411.00;;;2.19;74.17
10167;BME280;62970;53.130;8.244;2022-12-07T00:10:19;101415.22;;;2.15;74.21
10167;BME280;62970;53.130;8.244;2022-12-07T00:12:51;101416.00;;;2.11;74.07
10167;BME280;62970;53.130;8.244;2022-12-07T00:15:20;101417.69;;;2.11;74.22
10167;BME280;62970;53.130;8.244;2022-12-07T00:17:51;101411.72;;;2.12;74.74
10167;BME280;62970;53.130;8.244;2022-12-07T00:20:21;101421.19;;;2.14;74.53
10167;BME280;62970;53.130;8.244;2022-12-07T00:22:51;101424.72;;;2.18;74.86
10167;BME280;62970;53.130;8.244;2022-12-07T00:25:21;101423.09;;;2.22;75.16
10167;BME280;62970;53.130;8.244;2022-12-07T00:27:54;101424.03;;;2.25;74.91
10167;BME280;62970;53.130;8.244;2022-12-07T00:30:24;101430.03;;;2.26;74.80
10167;BME280;62970;53.130;8.244;2022-12-07T00:32:53;101428.31;;;2.25;74.30
10167;BME280;62970;53.130;8.244;2022-12-07T00:35:23;101424.88;;;2.24;74.62
10167;BME280;62970;53.130;8.244;2022-12-07T00:37:52;101424.84;;;2.23;74.26
10167;BME280;62970;53.130;8.244;2022-12-07T00:40:22;101409.44;;;2.24;74.67
10167;BME280;62970;53.130;8.244;2022-12-07T00:42:54;101419.75;;;2.26;74.44
10167;BME280;62970;53.130;8.244;2022-12-07T00:45:24;101424.94;;;2.27;74.37
10167;BME280;62970;53.130;8.244;2022-12-07T00:47:53;101416.31;;;2.25;74.15
10167;BME280;62970;53.130;8.244;2022-12-07T00:50:23;101409.31;;;2.20;74.23
10167;BME280;62970;53.130;8.244;2022-12-07T00:52:53;101404.94;;;2.15;73.50
10167;BME280;62970;53.130;8.244;2022-12-07T00:55:22;101409.09;;;2.10;73.77
10167;BME280;62970;53.130;8.244;2022-12-07T00:57:56;101409.88;;;2.06;73.93
10167;BME280;62970;53.130;8.244;2022-12-07T01:00:25;101402.13;;;2.05;74.33
10167;BME280;62970;53.130;8.244;2022-12-07T01:02:55;101406.41;;;2.04;74.59
10167;BME280;62970;53.130;8.244;2022-12-07T01:05:25;101402.94;;;2.02;73.85
10167;BME280;62970;53.130;8.244;2022-12-07T01:07:54;101398.50;;;1.95;73.81
10167;BME280;62970;53.130;8.244;2022-12-07T01:10:25;101394.88;;;1.87;73.32
10167;BME280;62970;53.130;8.244;2022-12-07T01:12:59;101393.81;;;1.77;72.93
10167;BME280;62970;53.130;8.244;2022-12-07T01:15:29;101402.19;;;1.69;73.09
10167;BME280;62970;53.130;8.244;2022-12-07T01:17:58;101397.69;;;1.59;72.85
10167;BME280;62970;53.130;8.244;2022-12-07T01:20:29;101397.44;;;1.48;72.55
10167;BME280;62970;53.130;8.244;2022-12-07T01:22:58;101398.09;;;1.39;72.67
10167;BME280;62970;53.130;8.244;2022-12-07T01:25:28;101395.34;;;1.32;72.90
10167;BME280;62970;53.130;8.244;2022-12-07T01:28:00;101399.47;;;1.25;73.31
10167;BME280;62970;53.130;8.244;2022-12-07T01:30:29;101400.25;;;1.23;73.29
10167;BME280;62970;53.130;8.244;2022-12-07T01:32:59;101395.94;;;1.22;73.82
10167;BME280;62970;53.130;8.244;2022-12-07T01:35:28;101398.50;;;1.22;74.10
10167;BME280;62970;53.130;8.244;2022-12-07T01:37:58;101393.44;;;1.25;74.58
10167;BME280;62970;53.130;8.244;2022-12-07T01:40:28;101396.09;;;1.28;75.02
10167;BME280;62970;53.130;8.244;2022-12-07T01:45:48;101410.06;;;1.39;75.26
10167;BME280;62970;53.130;8.244;2022-12-07T01:48:23;101413.69;;;1.47;75.37
10167;BME280;62970;53.130;8.244;2022-12-07T01:50:56;101414.72;;;1.55;75.77
10167;BME280;62970;53.130;8.244;2022-12-07T01:53:30;101403.75;;;1.62;75.70
10167;BME280;62970;53.130;8.244;2022-12-07T01:56:02;101394.53;;;1.70;75.46
10167;BME280;62970;53.130;8.244;2022-12-07T01:58:32;101386.91;;;1.75;74.97
10167;BME280;62970;53.130;8.244;2022-12-07T02:01:04;101382.59;;;1.74;75.14
10167;BME280;62970;53.130;8.244;2022-12-07T02:03:37;101384.28;;;1.73;74.95
10167;BME280;62970;53.130;8.244;2022-12-07T02:06:09;101376.63;;;1.75;74.95
10167;BME280;62970;53.130;8.244;2022-12-07T02:08:42;101381.75;;;1.75;74.74
10167;BME280;62970;53.130;8.244;2022-12-07T02:11:12;101385.22;;;1.77;75.21
10167;BME280;62970;53.130;8.244;2022-12-07T02:13:43;101380.19;;;1.81;75.34
10167;BME280;62970;53.130;8.244;2022-12-07T02:16:25;101381.97;;;1.84;75.10
10167;BME280;62970;53.130;8.244;2022-12-07T02:19:20;101376.91;;;1.89;75.36
10167;BME280;62970;53.130;8.244;2022-12-07T02:22:01;101388.97;;;1.91;75.31
10167;BME280;62970;53.130;8.244;2022-12-07T02:24:50;101381.31;;;1.94;74.87
10167;BME280;62970;53.130;8.244;2022-12-07T02:27:39;101380.50;;;1.95;75.08
10167;BME280;62970;53.130;8.244;2022-12-07T02:30:20;101365.91;;;1.96;74.90
10167;BME280;62970;53.130;8.244;2022-12-07T02:32:55;101363.31;;;1.94;74.60
10167;BME280;62970;53.130;8.244;2022-12-07T02:35:33;101364.16;;;1.93;74.65
10167;BME280;62970;53.130;8.244;2022-12-07T02:38:09;101359.81;;;1.91;74.90
10167;BME280;62970;53.130;8.244;2022-12-07T02:40:47;101359.72;;;1.86;74.37
10167;BME280;62970;53.130;8.244;2022-12-07T02:43:23;101358.75;;;1.81;74.04
10167;BME280;62970;53.130;8.244;2022-12-07T02:45:59;101349.22;;;1.77;73.93
10167;BME280;62970;53.130;8.244;2022-12-07T02:48:32;101349.97;;;1.71;74.42
10167;BME280;62970;53.130;8.244;2022-12-07T02:51:04;101350.69;;;1.66;73.95
10167;BME280;62970;53.130;8.244;2022-12-07T02:53:36;101344.59;;;1.61;74.29
10167;BME280;62970;53.130;8.244;2022-12-07T02:56:12;101347.03;;;1.55;74.10
10167;BME280;62970;53.130;8.244;2022-12-07T02:58:56;101343.44;;;1.48;73.85
10167;BME280;62970;53.130;8.244;2022-12-07T03:01:44;101338.13;;;1.40;73.81
10167;BME280;62970;53.130;8.244;2022-12-07T03:04:36;101336.31;;;1.35;73.80
10167;BME280;62970;53.130;8.244;2022-12-07T03:07:18;101343.94;;;1.32;73.86
10167;BME280;62970;53.130;8.244;2022-12-07T03:09:59;101341.34;;;1.30;74.37
10167;BME280;62970;53.130;8.244;2022-12-07T03:12:40;101359.31;;;1.30;74.68
10167;BME280;62970;53.130;8.244;2022-12-07T03:15:25;101349.91;;;1.31;74.82
10167;BME280;62970;53.130;8.244;2022-12-07T03:18:00;101341.34;;;1.30;74.62
10167;BME280;62970;53.130;8.244;2022-12-07T03:20:33;101328.56;;;1.33;74.63
10167;BME280;62970;53.130;8.244;2022-12-07T03:23:09;101326.03;;;1.35;74.89
10167;BME280;62970;53.130;8.244;2022-12-07T03:25:41;101328.63;;;1.36;74.99
10167;BME280;62970;53.130;8.244;2022-12-07T03:28:16;101332.84;;;1.34;74.61
10167;BME280;62970;53.130;8.244;2022-12-07T03:30:51;101343.03;;;1.30;74.38
10167;BME280;62970;53.130;8.244;2022-12-07T03:33:30;101332.66;;;1.25;73.74
10167;BME280;62970;53.130;8.244;2022-12-07T03:36:04;101337.72;;;1.22;74.22
10167;BME280;62970;53.130;8.244;2022-12-07T03:38:44;101338.63;;;1.24;74.94
10167;BME280;62970;53.130;8.244;2022-12-07T03:41:19;101344.75;;;1.29;74.82
10167;BME280;62970;53.130;8.244;2022-12-07T03:43:53;101338.78;;;1.32;75.11
10167;BME280;62970;53.130;8.244;2022-12-07T03:46:34;101339.63;;;1.31;74.64
10167;BME280;62970;53.130;8.244;2022-12-07T03:49:13;101347.31;;;1.29;74.17
10167;BME280;62970;53.130;8.244;2022-12-07T03:51:55;101345.47;;;1.24;74.31
10167;BME280;62970;53.130;8.244;2022-12-07T03:54:30;101342.78;;;1.19;73.96
10167;BME280;62970;53.130;8.244;2022-12-07T03:57:05;101345.28;;;1.16;74.28
10167;BME280;62970;53.130;8.244;2022-12-07T03:59:35;101341.72;;;1.11;74.05
10167;BME280;62970;53.130;8.244;2022-12-07T04:02:06;101348.47;;;1.06;73.70
10167;BME280;62970;53.130;8.244;2022-12-07T04:04:39;101350.91;;;1.01;73.79
10167;BME280;62970;53.130;8.244;2022-12-07T04:07:08;101346.53;;;0.97;74.14
10167;BME280;62970;53.130;8.244;2022-12-07T04:09:38;101355.03;;;0.95;74.17
10167;BME280;62970;53.130;8.244;2022-12-07T04:12:08;101355.00;;;0.93;74.72
10167;BME280;62970;53.130;8.244;2022-12-07T04:14:37;101354.16;;;0.94;74.74
10167;BME280;62970;53.130;8.244;2022-12-07T04:17:09;101351.59;;;0.94;74.38
10167;BME280;62970;53.130;8.244;2022-12-07T04:19:41;101342.09;;;0.90;74.41
10167;BME280;62970;53.130;8.244;2022-12-07T04:22:11;101350.53;;;0.86;73.72
10167;BME280;62970;53.130;8.244;2022-12-07T04:24:40;101345.28;;;0.81;74.02
10167;BME280;62970;53.130;8.244;2022-12-07T04:27:10;101357.13;;;0.76;73.83
10167;BME280;62970;53.130;8.244;2022-12-07T04:29:40;101346.72;;;0.70;73.84
10167;BME280;62970;53.130;8.244;2022-12-07T04:32:09;101356.94;;;0.69;74.10
10167;BME280;62970;53.130;8.244;2022-12-07T04:34:41;101360.41;;;0.71;74.67
10167;BME280;62970;53.130;8.244;2022-12-07T04:37:10;101364.91;;;0.79;75.56
10167;BME280;62970;53.130;8.244;2022-12-07T04:39:40;101360.88;;;0.89;75.57
10167;BME280;62970;53.130;8.244;2022-12-07T04:42:11;101346.56;;;0.99;75.79
10167;BME280;62970;53.130;8.244;2022-12-07T04:44:40;101340.75;;;1.06;75.84
10167;BME280;62970;53.130;8.244;2022-12-07T04:47:10;101344.22;;;1.08;75.45
10167;BME280;62970;53.130;8.244;2022-12-07T04:49:42;101341.63;;;1.06;75.14
10167;BME280;62970;53.130;8.244;2022-12-07T04:52:12;101343.31;;;1.06;75.16
10167;BME280;62970;53.130;8.244;2022-12-07T04:54:41;101338.22;;;1.07;75.28
10167;BME280;62970;53.130;8.244;2022-12-07T04:57:10;101336.59;;;1.11;75.35
10167;BME280;62970;53.130;8.244;2022-12-07T04:59:40;101327.28;;;1.16;75.23
10167;BME280;62970;53.130;8.244;2022-12-07T05:02:09;101328.28;;;1.21;75.22
10167;BME280;62970;53.130;8.244;2022-12-07T05:04:42;101324.91;;;1.24;75.62
10167;BME280;62970;53.130;8.244;2022-12-07T05:07:12;101337.00;;;1.28;75.16
10167;BME280;62970;53.130;8.244;2022-12-07T05:09:41;101329.31;;;1.29;75.19
10167;BME280;62970;53.130;8.244;2022-12-07T05:12:10;101329.34;;;1.31;75.13
10167;BME280;62970;53.130;8.244;2022-12-07T05:14:41;101328.53;;;1.32;75.28
10167;BME280;62970;53.130;8.244;2022-12-07T05:17:10;101323.34;;;1.30;74.88
10167;BME280;62970;53.130;8.244;2022-12-07T05:19:42;101327.59;;;1.28;74.66
10167;BME280;62970;53.130;8.244;2022-12-07T05:22:12;101324.91;;;1.24;74.22
10167;BME280;62970;53.130;8.244;2022-12-07T05:24:43;101325.63;;;1.18;74.53
10167;BME280;62970;53.130;8.244;2022-12-07T05:27:13;101330.63;;;1.12;74.24
10167;BME280;62970;53.130;8.244;2022-12-07T05:29:42;101333.16;;;1.10;74.81
10167;BME280;62970;53.130;8.244;2022-12-07T05:32:12;101334.00;;;1.09;75.15
10167;BME280;62970;53.130;8.244;2022-12-07T05:34:44;101341.66;;;1.08;74.73
10167;BME280;62970;53.130;8.244;2022-12-07T05:37:14;101327.94;;;1.07;74.84
10167;BME280;62970;53.130;8.244;2022-12-07T05:39:43;101332.28;;;1.10;74.94
10167;BME280;62970;53.130;8.244;2022-12-07T05:42:13;101328.97;;;1.14;75.02
10167;BME280;62970;53.130;8.244;2022-12-07T05:44:49;101327.28;;;1.16;75.50
10167;BME280;62970;53.130;8.244;2022-12-07T05:47:18;101323.94;;;1.18;75.43
10167;BME280;62970;53.130;8.244;2022-12-07T05:49:50;101323.09;;;1.19;75.19
10167;BME280;62970;53.130;8.244;2022-12-07T05:52:21;101324.84;;;1.20;75.14
10167;BME280;62970;53.130;8.244;2022-12-07T05:54:52;101322.31;;;1.22;75.41
10167;BME280;62970;53.130;8.244;2022-12-07T05:57:21;101318.06;;;1.24;75.54
10167;BME280;62970;53.130;8.244;2022-12-07T05:59:50;101321.53;;;1.26;75.11
10167;BME280;62970;53.130;8.244;2022-12-07T06:02:17;101325.84;;;1.27;75.44
10167;BME280;62970;53.130;8.244;2022-12-07T06:04:50;101330.16;;;1.28;75.21
10167;BME280;62970;53.130;8.244;2022-12-07T06:07:20;101330.22;;;1.31;75.20
10167;BME280;62970;53.130;8.244;2022-12-07T06:09:50;101326.88;;;1.35;75.55
10167;BME280;62970;53.130;8.244;2022-12-07T06:12:21;101331.31;;;1.41;75.50
10167;BME280;62970;53.130;8.244;2022-12-07T06:15:00;101334.84;;;1.46;75.66
10167;BME280;62970;53.130;8.244;2022-12-07T06:17:33;101327.19;;;1.49;75.38
10167;BME280;62970;53.130;8.244;2022-12-07T06:20:10;101325.59;;;1.54;75.39
10167;BME280;62970;53.130;8.244;2022-12-07T06:22:41;101326.56;;;1.59;75.65
10167;BME280;62970;53.130;8.244;2022-12-07T06:25:11;101320.66;;;1.63;75.10
10167;BME280;62970;53.130;8.244;2022-12-07T06:27:40;101326.75;;;1.68;75.56
10167;BME280;62970;53.130;8.244;2022-12-07T06:30:11;101321.69;;;1.71;75.26
10167;BME280;62970;53.130;8.244;2022-12-07T06:32:40;101333.81;;;1.77;75.30
10167;BME280;62970;53.130;8.244;2022-12-07T06:35:12;101325.31;;;1.81;75.31
10167;BME280;62970;53.130;8.244;2022-12-07T06:37:41;101332.25;;;1.85;75.27
10167;BME280;62970;53.130;8.244;2022-12-07T06:40:11;101346.91;;;1.89;75.11
10167;BME280;62970;53.130;8.244;2022-12-07T06:42:42;101344.41;;;1.92;75.47
10167;BME280;62970;53.130;8.244;2022-12-07T06:45:13;101347.06;;;1.97;75.32
10167;BME280;62970;53.130;8.244;2022-12-07T06:47:44;101354.84;;;2.00;75.06
10167;BME280;62970;53.130;8.244;2022-12-07T06:50:16;101360.03;;;2.01;75.27
10167;BME280;62970;53.130;8.244;2022-12-07T06:52:45;101360.09;;;2.04;75.31
10167;BME280;62970;53.130;8.244;2022-12-07T06:55:15;101364.41;;;2.05;75.17
10167;BME280;62970;53.130;8.244;2022-12-07T06:57:44;101374.69;;;2.05;74.65
10167;BME280;62970;53.130;8.244;2022-12-07T07:00:16;101346.38;;;2.04;75.08
10167;BME280;62970;53.130;8.244;2022-12-07T07:02:45;101348.94;;;2.04;74.80
10167;BME280;62970;53.130;8.244;2022-12-07T07:05:17;101355.72;;;2.00;74.78
10167;BME280;62970;53.130;8.244;2022-12-07T07:07:48;101365.84;;;1.93;74.40
10167;BME280;62970;53.130;8.244;2022-12-07T07:10:17;101363.09;;;1.83;74.22
10167;BME280;62970;53.130;8.244;2022-12-07T07:12:46;101363.72;;;1.73;73.79
10167;BME280;62970;53.130;8.244;2022-12-07T07:15:16;101365.19;;;1.62;73.52
10167;BME280;62970;53.130;8.244;2022-12-07T07:17:46;101364.09;;;1.51;73.80
10167;BME280;62970;53.130;8.244;2022-12-07T07:20:19;101359.53;;;1.39;73.48
10167;BME280;62970;53.130;8.244;2022-12-07T07:22:48;101364.41;;;1.29;73.26
10167;BME280;62970;53.130;8.244;2022-12-07T07:25:18;101353.88;;;1.18;73.73
10167;BME280;62970;53.130;8.244;2022-12-07T07:27:51;101355.38;;;1.08;73.76
10167;BME280;62970;53.130;8.244;2022-12-07T07:30:24;101353.44;;;1.00;73.46
10167;BME280;62970;53.130;8.244;2022-12-07T07:32:57;101359.22;;;0.91;73.55
10167;BME280;62970;53.130;8.244;2022-12-07T07:35:32;101355.56;;;0.81;73.41
10167;BME280;62970;53.130;8.244;2022-12-07T07:38:02;101358.75;;;0.73;73.54
10167;BME280;62970;53.130;8.244;2022-12-07T07:40:32;101359.47;;;0.67;73.80
10167;BME280;62970;53.130;8.244;2022-12-07T07:43:03;101364.47;;;0.63;73.55
10167;BME280;62970;53.130;8.244;2022-12-07T07:45:33;101367.81;;;0.59;74.26
10167;BME280;62970;53.130;8.244;2022-12-07T07:48:02;101358.31;;;0.56;73.88
10167;BME280;62970;53.130;8.244;2022-12-07T07:50:34;101367.69;;;0.54;74.28
10167;BME280;62970;53.130;8.244;2022-12-07T07:53:05;101364.28;;;0.55;74.52
10167;BME280;62970;53.130;8.244;2022-12-07T07:55:34;101360.97;;;0.59;75.24
10167;BME280;62970;53.130;8.244;2022-12-07T07:58:04;101361.03;;;0.62;75.60
10167;BME280;62970;53.130;8.244;2022-12-07T08:00:33;101368.00;;;0.66;75.96
10167;BME280;62970;53.130;8.244;2022-12-07T08:03:02;101364.81;;;0.75;76.30
10167;BME280;62970;53.130;8.244;2022-12-07T08:05:37;101373.59;;;0.84;76.63
10167;BME280;62970;53.130;8.244;2022-12-07T08:08:06;101367.03;;;0.96;76.35
10167;BME280;62970;53.130;8.244;2022-12-07T08:10:35;101362.09;;;1.03;76.75
10167;BME280;62970;53.130;8.244;2022-12-07T08:13:05;101365.69;;;1.10;76.48
10167;BME280;62970;53.130;8.244;2022-12-07T08:15:42;101360.63;;;1.13;76.22
10167;BME280;62970;53.130;8.244;2022-12-07T08:18:12;101366.69;;;1.16;76.27
10167;BME280;62970;53.130;8.244;2022-12-07T08:20:48;101372.66;;;1.15;75.78
10167;BME280;62970;53.130;8.244;2022-12-07T08:23:18;101366.75;;;1.18;75.70
10167;BME280;62970;53.130;8.244;2022-12-07T08:25:47;101361.72;;;1.23;76.45
10167;BME280;62970;53.130;8.244;2022-12-07T08:28:16;101363.63;;;1.31;76.30
10167;BME280;62970;53.130;8.244;2022-12-07T08:30:45;101370.78;;;1.44;76.84
10167;BME280;62970;53.130;8.244;2022-12-07T08:33:15;101371.91;;;1.56;76.98
10167;BME280;62970;53.130;8.244;2022-12-07T08:35:46;101372.94;;;1.64;76.89
10167;BME280;62970;53.130;8.244;2022-12-07T08:38:15;101374.81;;;1.71;76.42
10167;BME280;62970;53.130;8.244;2022-12-07T08:40:54;101374.91;;;1.75;76.67
10167;BME280;62970;53.130;8.244;2022-12-07T08:43:24;101381.06;;;1.82;76.47
10167;BME280;62970;53.130;8.244;2022-12-07T08:46:03;101378.56;;;1.85;76.09
10167;BME280;62970;53.130;8.244;2022-12-07T08:48:41;101376.94;;;1.90;76.08
10167;BME280;62970;53.130;8.244;2022-12-07T08:51:14;101383.94;;;1.96;76.07
10167;BME280;62970;53.130;8.244;2022-12-07T08:53:51;101380.59;;;2.00;76.53
10167;BME280;62970;53.130;8.244;2022-12-07T08:56:22;101386.72;;;2.06;76.06
10167;BME280;62970;53.130;8.244;2022-12-07T08:58:52;101387.66;;;2.10;76.31
10167;BME280;62970;53.130;8.244;2022-12-07T09:01:21;101380.03;;;2.14;76.33
10167;BME280;62970;53.130;8.244;2022-12-07T09:03:51;101386.09;;;2.18;75.95
10167;BME280;62970;53.130;8.244;2022-12-07T09:06:24;101381.97;;;2.23;76.23
10167;BME280;62970;53.130;8.244;2022-12-07T09:08:58;101388.03;;;2.27;75.90
10167;BME280;62970;53.130;8.244;2022-12-07T09:11:28;101387.25;;;2.31;76.23
10167;BME280;62970;53.130;8.244;2022-12-07T09:13:57;101389.06;;;2.35;76.08
10167;BME280;62970;53.130;8.244;2022-12-07T09:16:27;101393.41;;;2.37;76.18
10167;BME280;62970;53.130;8.244;2022-12-07T09:18:57;101390.00;;;2.40;75.86
10167;BME280;62970;53.130;8.244;2022-12-07T09:21:29;101391.69;;;2.38;75.85
10167;BME280;62970;53.130;8.244;2022-12-07T09:24:01;101383.94;;;2.36;75.42
10167;BME280;62970;53.130;8.244;2022-12-07T09:26:33;101378.75;;;2.35;75.52
10167;BME280;62970;53.130;8.244;2022-12-07T09:29:05;101374.50;;;2.37;75.79
10167;BME280;62970;53.130;8.244;2022-12-07T09:31:37;101368.59;;;2.42;75.89
10167;BME280;62970;53.130;8.244;2022-12-07T09:34:06;101367.91;;;2.51;75.78
10167;BME280;62970;53.130;8.244;2022-12-07T09:36:38;101378.34;;;2.59;76.07
10167;BME280;62970;53.130;8.244;2022-12-07T09:39:09;101375.06;;;2.66;76.16
10167;BME280;62970;53.130;8.244;2022-12-07T09:41:39;101386.34;;;2.72;75.92
10167;BME280;62970;53.130;8.244;2022-12-07T09:44:13;101388.19;;;2.79;75.82
10167;BME280;62970;53.130;8.244;2022-12-07T09:46:43;101378.88;;;2.88;75.79
10167;BME280;62970;53.130;8.244;2022-12-07T09:49:18;101378.16;;;2.93;76.17
10167;BME280;62970;53.130;8.244;2022-12-07T09:52:15;101357.59;;;2.96;75.60
10167;BME280;62970;53.130;8.244;2022-12-07T09:54:50;101362.78;;;2.99;75.51
10167;BME280;62970;53.130;8.244;2022-12-07T09:57:28;101361.97;;;3.02;75.72
10167;BME280;62970;53.130;8.244;2022-12-07T10:00:03;101360.28;;;3.04;75.44
10167;BME280;62970;53.130;8.244;2022-12-07T10:02:37;101364.66;;;3.08;75.42
10167;BME280;62970;53.130;8.244;2022-12-07T10:05:16;101371.59;;;3.12;75.47
10167;BME280;62970;53.130;8.244;2022-12-07T10:07:50;101372.47;;;3.14;75.23
10167;BME280;62970;53.130;8.244;2022-12-07T10:10:25;101358.78;;;3.17;75.24
10167;BME280;62970;53.130;8.244;2022-12-07T10:12:59;101352.84;;;3.21;75.80
10167;BME280;62970;53.130;8.244;2022-12-07T10:15:46;101346.00;;;3.23;75.54
10167;BME280;62970;53.130;8.244;2022-12-07T10:18:28;101340.84;;;3.24;75.57
10167;BME280;62970;53.130;8.244;2022-12-07T10:21:05;101341.75;;;3.26;75.51
10167;BME280;62970;53.130;8.244;2022-12-07T10:23:43;101338.34;;;3.29;75.52
10167;BME280;62970;53.130;8.244;2022-12-07T10:26:34;101339.25;;;3.32;75.36
10167;BME280;62970;53.130;8.244;2022-12-07T10:29:15;101344.50;;;3.37;75.48
10167;BME280;62970;53.130;8.244;2022-12-07T10:31:48;101344.56;;;3.41;75.21
10167;BME280;62970;53.130;8.244;2022-12-07T10:34:23;101339.47;;;3.46;75.68
10167;BME280;62970;53.130;8.244;2022-12-07T10:37:15;101336.09;;;3.52;75.30
10167;BME280;62970;53.130;8.244;2022-12-07T10:39:51;101337.94;;;3.59;75.43
10167;BME280;62970;53.130;8.244;2022-12-07T10:42:22;101332.84;;;3.65;75.60
10167;BME280;62970;53.130;8.244;2022-12-07T10:45:09;101334.66;;;3.70;75.69
10167;BME280;62970;53.130;8.244;2022-12-07T10:47:45;101327.88;;;3.78;75.45
10167;BME280;62970;53.130;8.244;2022-12-07T10:50:50;101328.78;;;3.82;75.13
10167;BME280;62970;53.130;8.244;2022-12-07T10:53:39;101317.66;;;3.86;75.40
10167;BME280;62970;53.130;8.244;2022-12-07T10:56:54;101327.16;;;3.90;75.10
10167;BME280;62970;53.130;8.244;2022-12-07T10:59:46;101326.34;;;3.94;75.15
10167;BME280;62970;53.130;8.244;2022-12-07T11:05:42;101322.09;;;3.98;74.94
10167;BME280;62970;53.130;8.244;2022-12-07T11:08:38;101316.09;;;3.99;74.75
10167;BME280;62970;53.130;8.244;2022-12-07T11:11:14;101315.25;;;4.00;74.68
10167;BME280;62970;53.130;8.244;2022-12-07T11:16:36;101323.00;;;4.01;74.30
10167;BME280;62970;53.130;8.244;2022-12-07T11:19:24;101321.28;;;4.02;74.20
10167;BME280;62970;53.130;8.244;2022-12-07T11:22:00;101319.59;;;4.04;74.02
10167;BME280;62970;53.130;8.244;2022-12-07T11:24:42;101311.88;;;4.05;74.42
10167;BME280;62970;53.130;8.244;2022-12-07T11:27:26;101303.28;;;4.06;74.09
10167;BME280;62970;53.130;8.244;2022-12-07T11:30:15;101292.06;;;4.04;74.16
10167;BME280;62970;53.130;8.244;2022-12-07T11:33:09;101288.63;;;4.04;73.94
10167;BME280;62970;53.130;8.244;2022-12-07T11:35:53;101280.84;;;4.01;73.92
10167;BME280;62970;53.130;8.244;2022-12-07T11:38:37;101282.56;;;4.00;73.95
10167;BME280;62970;53.130;8.244;2022-12-07T11:41:13;101273.94;;;3.98;73.66
10167;BME280;62970;53.130;8.244;2022-12-07T11:43:55;101280.78;;;3.96;73.96
10167;BME280;62970;53.130;8.244;2022-12-07T11:46:39;101275.59;;;3.93;73.89
10167;BME280;62970;53.130;8.244;2022-12-07T11:49:19;101277.31;;;3.93;73.90
10167;BME280;62970;53.130;8.244;2022-12-07T11:51:54;101273.88;;;3.92;73.47
10167;BME280;62970;53.130;8.244;2022-12-07T11:54:32;101274.72;;;3.91;73.28
10167;BME280;62970;53.130;8.244;2022-12-07T11:57:11;101271.25;;;3.89;73.63
10167;BME280;62970;53.130;8.244;2022-12-07T11:59:49;101261.78;;;3.88;73.27
10167;BME280;62970;53.130;8.244;2022-12-07T12:02:32;101259.19;;;3.88;73.38
10167;BME280;62970;53.130;8.244;2022-12-07T12:05:13;101254.91;;;3.90;73.77
10167;BME280;62970;53.130;8.244;2022-12-07T12:07:50;101254.94;;;3.93;73.62
10167;BME280;62970;53.130;8.244;2022-12-07T12:10:29;101242.13;;;3.99;73.63
10167;BME280;62970;53.130;8.244;2022-12-07T12:19:44;101239.75;;;4.21;73.98
10167;BME280;62970;53.130;8.244;2022-12-07T12:22:35;101226.00;;;4.23;73.80
10167;BME280;62970;53.130;8.244;2022-12-07T12:25:20;101231.22;;;4.26;73.79
10167;BME280;62970;53.130;8.244;2022-12-07T12:27:54;101231.22;;;4.29;73.34
10167;BME280;62970;53.130;8.244;2022-12-07T12:30:32;101224.34;;;4.30;73.44
10167;BME280;62970;53.130;8.244;2022-12-07T12:33:13;101222.63;;;4.30;72.92
10167;BME280;62970;53.130;8.244;2022-12-07T12:36:26;101225.19;;;4.27;73.07
10167;BME280;62970;53.130;8.244;2022-12-07T12:39:11;101214.00;;;4.27;73.04
10167;BME280;62970;53.130;8.244;2022-12-07T12:42:06;101218.31;;;4.28;73.11
10167;BME280;62970;53.130;8.244;2022-12-07T12:45:23;101215.75;;;4.29;72.81
10167;BME280;62970;53.130;8.244;2022-12-07T12:47:58;101212.34;;;4.33;72.73
10167;BME280;62970;53.130;8.244;2022-12-07T12:50:32;101215.81;;;4.37;72.89
10167;BME280;62970;53.130;8.244;2022-12-07T12:53:20;101207.28;;;4.46;73.25
10167;BME280;62970;53.130;8.244;2022-12-07T12:59:22;101214.25;;;4.57;73.27
10167;BME280;62970;53.130;8.244;2022-12-07T13:04:52;101212.56;;;4.62;72.73
10167;BME280;62970;53.130;8.244;2022-12-07T13:07:58;101224.63;;;4.63;72.60
10167;BME280;62970;53.130;8.244;2022-12-07T13:10:42;101250.44;;;4.60;72.37
10167;BME280;62970;53.130;8.244;2022-12-07T13:13:36;101227.94;;;4.47;71.70
10167;BME280;62970;53.130;8.244;2022-12-07T13:16:40;101227.72;;;4.23;70.85
10167;BME280;62970;53.130;8.244;2022-12-07T13:22:52;101224.66;;;3.77;71.40
10167;BME280;62970;53.130;8.244;2022-12-07T13:25:46;101222.81;;;3.65;71.74
10167;BME280;62970;53.130;8.244;2022-12-07T13:28:21;101214.16;;;3.60;72.03
10167;BME280;62970;53.130;8.244;2022-12-07T13:31:14;101210.63;;;3.54;72.52
10167;BME280;62970;53.130;8.244;2022-12-07T13:33:46;101212.31;;;3.50;72.41
10167;BME280;62970;53.130;8.244;2022-12-07T13:36:24;101211.44;;;3.48;72.66
10167;BME280;62970;53.130;8.244;2022-12-07T13:38:57;101208.88;;;3.50;72.81
10167;BME280;62970;53.130;8.244;2022-12-07T13:41:32;101200.31;;;3.52;72.68
10167;BME280;62970;53.130;8.244;2022-12-07T13:44:07;101202.06;;;3.55;73.29
10167;BME280;62970;53.130;8.244;2022-12-07T13:46:47;101201.25;;;3.59;73.34
10167;BME280;62970;53.130;8.244;2022-12-07T13:49:24;101207.34;;;3.65;73.52
10167;BME280;62970;53.130;8.244;2022-12-07T13:51:55;101212.59;;;3.73;73.69
10167;BME280;62970;53.130;8.244;2022-12-07T13:54:46;101210.94;;;3.80;73.66
10167;BME280;62970;53.130;8.244;2022-12-07T13:57:19;101202.41;;;3.85;73.29
10167;BME280;62970;53.130;8.244;2022-12-07T13:59:48;101202.47;;;3.91;73.40
10167;BME280;62970;53.130;8.244;2022-12-07T14:02:19;101199.94;;;3.96;73.87
10167;BME280;62970;53.130;8.244;2022-12-07T14:04:50;101203.41;;;3.99;73.39